Flight Track Log - Related Links

Times and Time Zones

All times are in EDT time to prevent confusion due to time zone crossing. See the WEW1540 flight status page for this flight to view local times or setup timezone preferences in your user account.

Time Position Orientation Groundspeed Altitude Reporting Facility
EDT Latitude Longitude Course Direction KTS MPH feet Rate Location/Type
Tue 05:45:23 PM 50.4000 -104.7167 308° West 110 127 2,300  Level Winnipeg Center
Tue 05:46:23 PM 50.4167 -104.7500 308° West 110 127 3,800 1,500 Climbing Winnipeg Center
Tue 05:47:23 PM 50.4167 -104.8000 270° West 100 115 5,300 1,200 Climbing Winnipeg Center
Tue 05:48:23 PM 50.4333 -104.8500 298° West 110 127 6,200 1,100 Climbing Winnipeg Center
Tue 05:49:23 PM 50.4500 -104.8833 308° West 110 127 7,500 900 Climbing Winnipeg Center
Tue 05:50:23 PM 50.4500 -104.9333 270° West 120 138 8,000 250 Climbing Winnipeg Center
Tue 05:51:23 PM 50.4833 -105.0000 308° West 150 173 8,000  Level Winnipeg Center
Tue 05:52:23 PM 50.5000 -105.0833 287° West 160 184 8,000  Level Winnipeg Center
Tue 05:53:23 PM 50.5167 -105.1333 298° West 160 184 8,000  Level Winnipeg Center
Tue 05:54:23 PM 50.5333 -105.2000 291° West 170 196 8,000  Level Winnipeg Center
Tue 05:55:23 PM 50.5500 -105.2500 298° West 160 184 8,000  Level Winnipeg Center
Tue 05:56:23 PM 50.5833 -105.3333 302° West 160 184 8,000  Level Winnipeg Center
Tue 05:57:23 PM 50.6000 -105.3833 298° West 160 184 8,000  Level Winnipeg Center
Tue 05:58:23 PM 50.6000 -105.4667 270° West 160 184 8,000  Level Winnipeg Center
Tue 05:59:23 PM 50.6167 -105.5167 298° West 160 184 8,000  Level Winnipeg Center
Tue 06:00:23 PM 50.6333 -105.5833 292° West 160 184 8,000  Level Winnipeg Center
Tue 06:01:23 PM 50.6333 -105.6667 270° West 160 184 8,000  Level Winnipeg Center
Tue 06:02:23 PM 50.6500 -105.7167 298° West 160 184 8,000 50 Level Winnipeg Center
Tue 06:03:23 PM 50.6833 -105.7667 316° Northwest 150 173 8,100 50 Climbing Winnipeg Center
Tue 06:04:23 PM 50.7167 -105.8333 308° West 160 184 8,100  Level Winnipeg Center
Tue 06:05:23 PM 50.7167 -105.9167 270° West 160 184 8,100  Level Winnipeg Center
Tue 06:06:23 PM 50.7500 -105.9667 317° Northwest 160 184 8,100 50 Level Winnipeg Center
Tue 06:07:23 PM 50.7667 -106.0333 292° West 160 184 8,200 50 Climbing Winnipeg Center
Tue 06:08:23 PM 50.7667 -106.1167 270° West 170 196 8,200  Level Winnipeg Center
Tue 06:09:23 PM 50.7833 -106.1667 298° West 170 196 8,200  Level Winnipeg Center
Tue 06:10:23 PM 50.8000 -106.2500 288° West 170 196 8,200  Level Winnipeg Center
Tue 06:11:23 PM 50.8167 -106.3167 292° West 170 196 8,200  Level Winnipeg Center
Tue 06:12:23 PM 50.8333 -106.3833 292° West 160 184 8,200  Level Winnipeg Center
Tue 06:13:23 PM 50.8500 -106.4500 292° West 160 184 8,200  Level Winnipeg Center
Tue 06:14:23 PM 50.8833 -106.5000 317° Northwest 160 184 8,200  Level Winnipeg Center
Tue 06:16:38 PM 50.9167 -106.6500 289° West 160 184 8,200  Level Winnipeg Center
Tue 06:17:38 PM 50.9167 -106.7333 270° West 170 196 8,200  Level Winnipeg Center
Tue 06:18:38 PM 50.9333 -106.7833 298° West 170 196 8,200  Level Winnipeg Center
Tue 06:19:38 PM 50.9667 -106.8667 302° West 170 196 8,200  Level Winnipeg Center
Tue 06:20:38 PM 50.9667 -106.9333 270° West 170 196 8,200  Level Winnipeg Center
Tue 06:21:38 PM 51.0000 -107.0167 302° West 170 196 8,200  Level Winnipeg Center
Tue 06:22:38 PM 51.0167 -107.0667 298° West 170 196 8,200  Level Winnipeg Center
Tue 06:23:38 PM 51.0167 -107.1333 270° West 160 184 8,200  Level Winnipeg Center
Tue 06:24:38 PM 51.0333 -107.2167 288° West 160 184 8,200  Level Winnipeg Center
Tue 06:25:38 PM 51.0500 -107.2667 298° West 170 196 8,200  Level Winnipeg Center
Tue 06:26:38 PM 51.0500 -107.3500 270° West 160 184 8,200  Level Winnipeg Center
Tue 06:27:38 PM 51.0833 -107.4000 317° Northwest 170 196 8,200  Level Winnipeg Center
Tue 06:28:38 PM 51.1000 -107.4667 292° West 150 173 8,200  Level Winnipeg Center
Tue 06:29:38 PM 51.1167 -107.5500 288° West 160 184 8,200  Level Winnipeg Center
Tue 06:30:38 PM 51.1333 -107.6000 298° West 150 173 8,200  Level Winnipeg Center
Tue 06:31:38 PM 51.1667 -107.6333 328° Northwest 150 173 8,200  Level Winnipeg Center
Tue 06:32:38 PM 51.1667 -107.7167 270° West 160 184 8,200  Level Winnipeg Center
Tue 06:33:38 PM 51.1833 -107.7833 292° West 170 196 8,200  Level Winnipeg Center
Tue 06:34:38 PM 51.2000 -107.8667 288° West 160 184 8,200  Level Winnipeg Center
Tue 06:35:38 PM 51.2000 -107.9500 270° West 170 196 8,200  Level Winnipeg Center
Tue 06:36:38 PM 51.2167 -108.0000 298° West 160 184 8,200  Level Winnipeg Center
Tue 06:37:38 PM 51.2167 -108.0667 270° West 160 184 8,200  Level Winnipeg Center
Tue 06:38:38 PM 51.2500 -108.1500 303° West 160 184 8,200  Level Winnipeg Center
Tue 06:39:38 PM 51.2667 -108.2000 298° West 160 184 8,200  Level Winnipeg Center
Tue 06:40:38 PM 51.2833 -108.2667 292° West 160 184 8,200  Level Winnipeg Center
Tue 06:41:38 PM 51.3000 -108.3167 298° West 160 184 8,200  Level Winnipeg Center
Tue 06:42:38 PM 51.3333 -108.3833 309° West 160 184 8,200  Level Winnipeg Center
Tue 06:43:38 PM 51.3333 -108.4667 270° West 170 196 8,200 -150 Level Winnipeg Center
Tue 06:44:38 PM 51.3667 -108.5333 309° West 160 184 7,900 -450 Descending Winnipeg Center
Tue 06:45:38 PM 51.3667 -108.6167 270° West 170 196 7,300 -550 Descending Winnipeg Center
Tue 06:46:38 PM 51.3833 -108.7000 288° West 180 207 6,800 -500 Descending Winnipeg Center
Tue 06:48:00 PM 51.4140 -108.7842 300° West  Level FlightAware Approximate
Tue 06:55:00 PM 51.5000 -109.1667 286° West  Level FlightAware Approximate
Tue 06:56:00 PM 51.5175 -109.1808 286° West  Level Estimated
Tue 06:57:00 PM 51.5175 -109.1808 286° West  Level Estimated
Tue 06:58:00 PM 51.5175 -109.1808 286° West  Level Estimated
Tue 06:59:00 PM 51.5175 -109.1808 286° West  Level Estimated
Tue 07:00:00 PM 51.5175 -109.1808 286° West  Level Estimated
Tue 07:01:00 PM 51.5175 -109.1808 286° West  Level Estimated
Tue 07:02:00 PM 51.5175 -109.1808 286° West  Level Estimated
Tue 07:03:00 PM 51.5175 -109.1808 286° West  Level Estimated
Tue 07:04:00 PM 51.5175 -109.1808 286° West  Level Estimated

Login

Don't have an account? Register now (free) for customized features, flight alerts, and more!